createdAt,value
2019-04-11T03:02:44.470Z,77.50
2019-04-11T03:05:13.782Z,77.40
2019-04-11T03:07:42.620Z,77.60
2019-04-11T03:10:13.761Z,78.30
2019-04-11T03:12:43.550Z,78.80
2019-04-11T03:15:28.866Z,78.90
2019-04-11T03:17:44.629Z,78.20
2019-04-11T03:20:23.011Z,78.30
2019-04-11T03:22:44.767Z,78.90
2019-04-11T03:25:13.763Z,80.10
2019-04-11T03:27:43.279Z,78.90
2019-04-11T03:30:19.593Z,79.30
2019-04-11T03:36:10.801Z,78.80
2019-04-11T03:38:03.728Z,78.30
2019-04-11T03:40:33.512Z,78.70
2019-04-11T03:42:59.445Z,78.70
2019-04-11T03:45:32.556Z,78.40
2019-04-11T03:48:04.027Z,78.70
2019-04-11T03:50:20.710Z,79.10
2019-04-11T03:52:45.836Z,78.40
2019-04-11T03:55:15.208Z,78.60
2019-04-11T03:57:44.313Z,79.20
2019-04-11T04:00:14.970Z,79.80
2019-04-11T04:02:44.409Z,79.90
2019-04-11T04:05:13.302Z,79.10
2019-04-11T04:07:42.013Z,79.10
2019-04-11T04:10:13.118Z,79.50
2019-04-11T04:12:43.084Z,79.90
2019-04-11T04:15:47.149Z,80.20
2019-04-11T04:18:29.712Z,79.90
2019-04-11T04:21:10.948Z,79.70
2019-04-11T04:23:43.356Z,79.80
2019-04-11T04:26:12.409Z,80.00
2019-04-11T04:28:42.772Z,79.90
2019-04-11T04:31:11.733Z,79.80
2019-04-11T04:33:40.448Z,80.00
2019-04-11T04:36:11.014Z,80.10
2019-04-11T04:38:41.361Z,80.20
2019-04-11T04:41:23.931Z,80.90
2019-04-11T04:43:41.385Z,80.60
2019-04-11T04:46:28.042Z,80.30
2019-04-11T04:48:43.336Z,80.90
2019-04-11T04:51:15.234Z,80.30
2019-04-11T04:53:43.009Z,81.10
2019-04-11T04:56:13.439Z,80.50
2019-04-11T04:58:42.199Z,80.60
2019-04-11T05:01:12.507Z,81.10
2019-04-11T05:03:42.364Z,80.90
2019-04-11T05:06:11.964Z,81.60
2019-04-11T05:08:41.023Z,80.30
2019-04-11T05:11:10.154Z,81.10
2019-04-11T05:13:40.455Z,80.50
2019-04-11T05:16:17.214Z,81.10
2019-04-11T05:18:39.746Z,81.10
2019-04-11T05:21:08.646Z,81.10
2019-04-11T05:23:37.604Z,80.80
2019-04-11T05:26:06.894Z,80.50
2019-04-11T05:28:35.642Z,80.80
2019-04-11T05:31:04.306Z,81.20
2019-04-11T05:33:32.910Z,80.80
2019-04-11T05:36:01.590Z,81.00
2019-04-11T05:38:30.261Z,81.20
2019-04-11T05:40:58.834Z,80.90
2019-04-11T05:43:31.464Z,80.70
2019-04-11T05:45:58.319Z,80.20
2019-04-11T05:48:41.031Z,79.80
2019-04-11T05:51:10.931Z,79.60
2019-04-11T05:53:39.660Z,79.60
2019-04-11T05:56:09.152Z,79.50
2019-04-11T05:58:42.214Z,80.40
2019-04-11T06:01:20.413Z,80.00
2019-04-11T06:03:50.956Z,80.00
2019-04-11T06:06:34.922Z,80.10
2019-04-11T06:09:07.738Z,79.60
2019-04-11T06:11:53.449Z,78.90
2019-04-11T06:14:39.886Z,79.80
2019-04-11T06:17:11.490Z,79.50
2019-04-11T06:19:50.676Z,79.30
2019-04-11T06:22:19.885Z,79.50
2019-04-11T06:25:09.182Z,79.10
2019-04-11T06:27:47.406Z,78.80
2019-04-11T06:30:34.640Z,78.30
2019-04-11T06:33:20.769Z,77.90
2019-04-11T06:36:09.544Z,79.00
2019-04-11T06:38:45.560Z,78.50
2019-04-11T06:41:32.806Z,77.80
2019-04-11T06:44:25.817Z,77.70
2019-04-11T06:47:16.697Z,78.10
2019-04-11T06:50:02.799Z,77.60
2019-04-11T06:52:32.623Z,76.50
2019-04-11T06:55:26.955Z,75.90
2019-04-11T06:58:01.074Z,75.70
2019-04-11T07:00:31.425Z,75.30
2019-04-11T07:03:01.354Z,74.30
2019-04-11T07:05:33.166Z,75.10
2019-04-11T07:08:02.288Z,74.10
2019-04-11T07:10:39.009Z,74.20
2019-04-11T07:13:20.842Z,74.80
2019-04-11T07:15:52.868Z,74.10
2019-04-11T07:18:40.026Z,72.00
2019-04-11T07:21:10.722Z,72.00
2019-04-11T07:23:57.618Z,71.10
2019-04-11T07:26:45.736Z,71.40
2019-04-11T07:29:33.562Z,70.60
2019-04-11T07:32:22.235Z,70.90
2019-04-11T07:35:08.953Z,69.20
2019-04-11T07:37:38.949Z,68.20
2019-04-11T07:40:28.821Z,67.10
2019-04-11T07:43:19.640Z,66.80
2019-04-11T07:46:27.140Z,65.50
2019-04-11T07:49:06.227Z,65.50
2019-04-11T07:51:36.742Z,65.60
2019-04-11T07:54:16.286Z,66.10
2019-04-11T07:57:06.879Z,64.80
2019-04-11T07:59:55.696Z,63.70
2019-04-11T08:02:43.517Z,62.20
2019-04-11T08:05:30.240Z,62.30
2019-04-11T08:08:30.374Z,64.20
2019-04-11T08:11:20.886Z,64.00
2019-04-11T08:14:02.368Z,64.60
2019-04-11T08:16:59.520Z,65.80
2019-04-11T08:19:53.505Z,67.00
2019-04-11T08:22:35.861Z,66.70
2019-04-11T08:25:23.211Z,67.00
2019-04-11T08:28:02.365Z,67.50
2019-04-11T08:30:34.997Z,67.70
2019-04-11T08:33:04.541Z,66.90
2019-04-11T08:35:54.000Z,66.70
2019-04-11T08:38:25.055Z,66.70
2019-04-11T08:40:58.937Z,66.00
2019-04-11T08:43:31.165Z,65.80
2019-04-11T08:46:12.882Z,63.30
2019-04-11T08:48:44.240Z,63.10
2019-04-11T08:51:14.853Z,63.90
2019-04-11T08:54:01.473Z,65.00
2019-04-11T08:56:31.299Z,65.40
2019-04-11T08:59:49.383Z,65.40
2019-04-11T09:02:40.798Z,65.50
2019-04-11T09:05:43.934Z,65.80
2019-04-11T09:08:32.171Z,65.50
2019-04-11T09:11:18.611Z,65.80
2019-04-11T09:14:13.681Z,66.20
2019-04-11T09:17:01.669Z,66.50
2019-04-11T09:19:45.474Z,65.30
2019-04-11T09:22:31.647Z,63.20
2019-04-11T09:25:28.959Z,62.80
2019-04-11T09:28:09.166Z,63.70
2019-04-11T09:30:57.042Z,61.60
2019-04-11T09:33:57.549Z,60.90
2019-04-11T09:36:45.159Z,60.00
2019-04-11T09:39:24.307Z,58.90
2019-04-11T09:42:07.177Z,59.10
2019-04-11T09:44:53.054Z,60.00
2019-04-11T09:47:40.842Z,60.10
2019-04-11T09:50:11.995Z,60.80
2019-04-11T09:52:45.215Z,60.00
2019-04-11T09:55:37.574Z,59.60
2019-04-11T09:58:23.139Z,60.60
2019-04-11T10:01:24.578Z,59.70
2019-04-11T10:03:53.158Z,59.00
2019-04-11T10:06:44.675Z,58.70
2019-04-11T10:09:13.600Z,58.50
2019-04-11T10:12:00.185Z,58.70
2019-04-11T10:14:31.400Z,58.60
2019-04-11T10:17:20.753Z,57.60
2019-04-11T10:19:56.951Z,58.70
2019-04-11T10:22:48.055Z,57.40
2019-04-11T10:25:21.212Z,57.50
2019-04-11T10:28:09.107Z,56.60
2019-04-11T10:30:55.822Z,55.00
2019-04-11T10:33:42.344Z,54.20
2019-04-11T10:36:31.550Z,53.80
2019-04-11T10:39:35.579Z,52.20
2019-04-11T10:42:08.501Z,50.60
2019-04-11T10:45:10.011Z,49.50
2019-04-11T10:47:38.821Z,49.40
2019-04-11T10:50:34.065Z,48.40
2019-04-11T10:53:04.040Z,48.30
2019-04-11T10:55:54.774Z,48.40
2019-04-11T10:58:28.865Z,48.00
2019-04-11T11:01:17.686Z,47.00
2019-04-11T11:03:52.018Z,47.20
2019-04-11T11:06:23.991Z,46.70
2019-04-11T11:09:14.870Z,47.50
2019-04-11T11:11:52.722Z,48.60
2019-04-11T11:14:52.402Z,47.10
2019-04-11T11:18:00.907Z,46.50
2019-04-11T11:20:34.722Z,48.30
2019-04-11T11:23:27.302Z,49.60
2019-04-11T11:26:04.781Z,49.70
2019-04-11T11:28:36.683Z,50.70
2019-04-11T11:31:14.132Z,51.60
2019-04-11T11:33:44.904Z,51.00
2019-04-11T11:36:34.823Z,51.80
2019-04-11T11:39:12.940Z,52.40
2019-04-11T11:42:01.958Z,52.50
2019-04-11T11:44:37.139Z,53.80
2019-04-11T11:47:38.024Z,53.30
2019-04-11T11:50:06.593Z,53.50
2019-04-11T11:53:08.169Z,54.40
2019-04-11T11:55:37.754Z,55.00
2019-04-11T11:58:31.487Z,54.60
2019-04-11T12:01:03.614Z,55.10
2019-04-11T12:04:04.971Z,55.70
2019-04-11T12:06:33.938Z,55.10
2019-04-11T12:09:20.406Z,55.40
2019-04-11T12:11:53.970Z,54.40
2019-04-11T12:14:43.390Z,53.30
2019-04-11T12:17:21.351Z,53.50
2019-04-11T12:20:04.987Z,53.50
2019-04-11T12:22:28.596Z,52.40
2019-04-11T12:25:12.523Z,53.20
2019-04-11T12:27:56.402Z,53.20
2019-04-11T12:30:34.415Z,52.50
2019-04-11T12:33:17.341Z,51.90
2019-04-11T12:35:48.756Z,51.30
2019-04-11T12:38:24.767Z,49.70
2019-04-11T12:41:14.171Z,49.20
2019-04-11T12:43:55.699Z,50.90
2019-04-11T12:46:42.554Z,48.30
2019-04-11T12:49:24.386Z,46.70
2019-04-11T12:52:10.954Z,45.80
2019-04-11T12:54:40.322Z,44.90
2019-04-11T12:57:40.063Z,44.00
2019-04-11T13:00:17.619Z,41.30
2019-04-11T13:03:11.407Z,40.70
2019-04-11T13:05:40.778Z,41.10
2019-04-11T13:08:27.065Z,41.30
2019-04-11T13:10:55.664Z,40.90
2019-04-11T13:13:30.263Z,41.40
2019-04-11T13:16:12.289Z,43.00
2019-04-11T13:18:59.475Z,43.10
2019-04-11T13:21:53.360Z,44.60
2019-04-11T13:24:47.331Z,44.90
2019-04-11T13:27:28.017Z,45.20
2019-04-11T13:30:18.787Z,45.50
2019-04-11T13:32:52.014Z,43.80
2019-04-11T13:35:27.239Z,44.80
2019-04-11T13:38:03.826Z,45.40
2019-04-11T13:40:54.585Z,44.10
2019-04-11T13:43:45.139Z,43.90
2019-04-11T13:46:32.791Z,45.30
2019-04-11T13:49:07.797Z,45.40
2019-04-11T13:51:45.259Z,45.40
2019-04-11T13:54:39.162Z,45.10
2019-04-11T13:57:25.822Z,45.20
2019-04-11T14:00:12.518Z,46.00
2019-04-11T14:02:54.134Z,47.30
2019-04-11T14:05:22.758Z,48.70
2019-04-11T14:07:51.606Z,48.60
2019-04-11T14:10:20.574Z,49.40
2019-04-11T14:12:49.166Z,49.20
2019-04-11T14:15:21.147Z,48.90
2019-04-11T14:18:11.497Z,49.10
2019-04-11T14:20:42.625Z,51.00
2019-04-11T14:23:33.334Z,50.20
2019-04-11T14:26:21.774Z,51.20
2019-04-11T14:29:12.363Z,51.30
2019-04-11T14:31:54.077Z,50.50
2019-04-11T14:34:38.086Z,51.20
2019-04-11T14:37:26.002Z,50.70
2019-04-11T14:39:59.008Z,51.00
2019-04-11T14:43:05.331Z,50.80
2019-04-11T14:45:53.011Z,51.90
2019-04-11T14:48:37.864Z,51.10
2019-04-11T14:51:16.062Z,51.10
2019-04-11T14:54:11.696Z,50.60
2019-04-11T14:56:44.786Z,50.00
2019-04-11T14:59:24.748Z,51.50
2019-04-11T15:01:57.311Z,51.90
2019-04-11T15:04:56.988Z,52.50
2019-04-11T15:07:25.618Z,52.70
2019-04-11T15:09:59.053Z,52.00
2019-04-11T15:12:29.439Z,53.10
2019-04-11T15:15:23.702Z,53.50
2019-04-11T15:17:55.944Z,52.20
2019-04-11T15:20:54.215Z,52.60
2019-04-11T15:23:32.354Z,52.40
2019-04-11T15:26:20.444Z,51.90
2019-04-11T15:29:13.822Z,52.50
2019-04-11T15:32:02.083Z,52.90
2019-04-11T15:34:36.763Z,53.10
2019-04-11T15:37:18.211Z,53.10
2019-04-11T15:40:04.115Z,53.00
2019-04-11T15:42:42.410Z,54.20
2019-04-11T15:45:27.326Z,53.70
2019-04-11T15:48:13.671Z,53.90
2019-04-11T15:51:06.484Z,52.90
2019-04-11T15:53:42.482Z,53.30
2019-04-11T15:56:29.131Z,53.30
2019-04-11T15:59:03.919Z,53.40
2019-04-11T16:02:01.074Z,52.50
2019-04-11T16:04:52.358Z,52.50
2019-04-11T16:07:46.138Z,53.00
2019-04-11T16:10:14.731Z,53.20
2019-04-11T16:12:51.323Z,53.90
2019-04-11T16:15:19.911Z,54.50
2019-04-11T16:18:20.911Z,53.20
2019-04-11T16:20:52.587Z,53.70
2019-04-11T16:23:31.433Z,53.30
2019-04-11T16:26:00.022Z,53.60
2019-04-11T16:28:46.579Z,53.00
2019-04-11T16:31:15.145Z,53.60
2019-04-11T16:34:05.675Z,54.00
2019-04-11T16:36:59.639Z,54.90
2019-04-11T16:39:52.165Z,54.80
2019-04-11T16:42:45.311Z,55.20
2019-04-11T16:45:38.863Z,55.60
2019-04-11T16:48:07.488Z,55.50
2019-04-11T16:50:36.046Z,55.20
2019-04-11T16:53:04.708Z,55.00
2019-04-11T16:55:33.311Z,54.90
2019-04-11T16:58:01.899Z,55.50
2019-04-11T17:00:30.482Z,55.40
2019-04-11T17:02:59.109Z,55.60
2019-04-11T17:05:27.664Z,56.20
2019-04-11T17:08:18.473Z,55.80
2019-04-11T17:11:08.251Z,55.90
2019-04-11T17:13:36.832Z,55.90
2019-04-11T17:16:07.858Z,56.20
2019-04-11T17:18:36.426Z,56.80
2019-04-11T17:21:07.834Z,56.70
2019-04-11T17:23:35.326Z,57.40
2019-04-11T17:26:06.047Z,57.10
2019-04-11T17:28:35.450Z,57.00
2019-04-11T17:31:04.049Z,57.50
2019-04-11T17:33:33.254Z,57.60
2019-04-11T17:36:02.897Z,57.90
2019-04-11T17:38:31.898Z,57.40
2019-04-11T17:41:00.502Z,57.70
2019-04-11T17:43:29.228Z,57.80
2019-04-11T17:45:57.906Z,57.50
2019-04-11T17:48:26.486Z,57.00
2019-04-11T17:50:55.130Z,56.70
2019-04-11T17:53:24.873Z,57.10
2019-04-11T17:55:54.897Z,57.00
2019-04-11T17:58:26.966Z,57.00
2019-04-11T18:01:00.392Z,57.30
2019-04-11T18:03:30.326Z,57.30
2019-04-11T18:05:58.975Z,57.90
2019-04-11T18:08:27.866Z,58.20
2019-04-11T18:10:56.703Z,58.50
2019-04-11T18:13:25.483Z,58.50
2019-04-11T18:15:54.050Z,58.80
2019-04-11T18:18:22.615Z,58.90
2019-04-11T18:20:51.307Z,58.90
2019-04-11T18:23:20.342Z,59.30
2019-04-11T18:25:51.134Z,59.60
2019-04-11T18:28:21.884Z,59.70
2019-04-11T18:30:53.814Z,60.10
2019-04-11T18:33:20.503Z,60.30
2019-04-11T18:35:49.060Z,60.70
2019-04-11T18:38:17.728Z,60.80
2019-04-11T18:40:46.390Z,60.80
2019-04-11T18:43:16.207Z,61.10
2019-04-11T18:45:45.531Z,61.40
2019-04-11T18:48:14.195Z,61.80
2019-04-11T18:50:42.782Z,61.30
2019-04-11T18:53:11.350Z,61.80
2019-04-11T18:55:39.910Z,61.90
2019-04-11T18:58:08.498Z,61.80
2019-04-11T19:00:38.314Z,62.20
2019-04-11T19:03:08.019Z,62.60
2019-04-11T19:05:37.678Z,62.50
2019-04-11T19:08:06.411Z,62.90
2019-04-11T19:10:35.266Z,63.10
2019-04-11T19:13:03.832Z,63.00
2019-04-11T19:15:32.406Z,63.40
2019-04-11T19:18:06.805Z,63.80
2019-04-11T19:20:31.364Z,63.60
2019-04-11T19:23:00.019Z,63.90
2019-04-11T19:25:28.618Z,64.40
2019-04-11T19:27:57.438Z,64.70
2019-04-11T19:30:26.388Z,64.80
2019-04-11T19:32:55.823Z,65.30
2019-04-11T19:35:24.746Z,65.80
2019-04-11T19:37:53.302Z,65.80
2019-04-11T19:40:22.035Z,66.20
2019-04-11T19:42:50.587Z,65.90
2019-04-11T19:45:20.124Z,65.90
2019-04-11T19:47:51.721Z,66.20
2019-04-11T19:50:19.203Z,66.40
2019-04-11T19:52:47.787Z,66.60
2019-04-11T19:55:27.958Z,66.50
2019-04-11T19:57:56.547Z,67.20
2019-04-11T20:00:25.185Z,66.80
2019-04-11T20:02:54.148Z,66.70
2019-04-11T20:05:23.358Z,66.60
2019-04-11T20:07:51.943Z,66.50
2019-04-11T20:10:20.538Z,66.70
2019-04-11T20:12:49.094Z,66.40
2019-04-11T20:15:17.662Z,66.40
2019-04-11T20:17:51.091Z,66.50
2019-04-11T20:20:16.522Z,66.40
2019-04-11T20:22:45.124Z,66.70
2019-04-11T20:25:16.203Z,66.60
2019-04-11T20:27:44.290Z,67.20
2019-04-11T20:30:13.403Z,67.70
2019-04-11T20:32:41.971Z,67.00
2019-04-11T20:35:10.555Z,66.70
2019-04-11T20:37:42.230Z,67.30
2019-04-11T20:40:09.482Z,67.20
2019-04-11T20:42:38.054Z,67.50
2019-04-11T20:45:06.667Z,67.90
2019-04-11T20:47:35.284Z,67.90
2019-04-11T20:50:07.803Z,68.20
2019-04-11T20:52:34.457Z,67.80
2019-04-11T20:55:03.038Z,67.70
2019-04-11T20:57:31.598Z,68.00
2019-04-11T21:00:00.194Z,67.80
2019-04-11T21:02:29.249Z,68.00
2019-04-11T21:04:58.990Z,68.00
2019-04-11T21:07:31.815Z,68.40
2019-04-11T21:09:58.474Z,68.50
2019-04-11T21:12:27.115Z,68.60
2019-04-11T21:14:55.674Z,69.10
2019-04-11T21:17:24.252Z,68.90
2019-04-11T21:19:53.331Z,69.20
2019-04-11T21:22:24.190Z,69.30
2019-04-11T21:24:52.714Z,69.60
2019-04-11T21:27:21.294Z,69.00
2019-04-11T21:29:49.854Z,69.60
2019-04-11T21:32:18.548Z,69.70
2019-04-11T21:34:47.450Z,69.20
2019-04-11T21:37:16.346Z,69.30
2019-04-11T21:39:44.906Z,69.50
2019-04-11T21:42:13.812Z,70.10
2019-04-11T21:44:42.690Z,69.90
2019-04-11T21:47:11.258Z,69.70
2019-04-11T21:49:39.834Z,69.50
2019-04-11T21:52:11.999Z,69.40
2019-04-11T21:54:38.671Z,69.80
2019-04-11T21:57:07.252Z,69.80
2019-04-11T21:59:36.126Z,69.50
